Terminal Aerodrome Forecast
Issued by NWS Binghamton, NY

Home | Current Version | Previous Version | Text Only | Print | Product List | Glossary On
Versions: 1 2 3 4 5 6 7 8 9 10 11 12 13 14
108
FTUS41 KBGM 141725
TAFAVP
TAF
KAVP 141725Z 1418/1518 31006KT P6SM SKC
     FM150900 VRB03KT P6SM OVC100
     FM151600 16007KT P6SM -SHSN BKN050 OVC100=

USA.gov is the U.S. government's official web portal to all federal, state and local government web resources and services.